Time,TemperatureF,DewpointF,PressureIn,WindDirection,WindDirectionDegrees,WindSpeedMPH,WindSpeedGustMPH,Humidity,HourlyPrecipIn,Conditions,Clouds,dailyrainin,SoftwareType,DateUTC
2013-06-16 00:14:00,48.3,44.0,29.97,ESE,113,0.0,0.0,86,0.00,,,0.00,weatherlink.com 1.10,2013-06-16 07:14:00,
2013-06-16 00:31:00,47.5,44.0,29.97,ESE,113,0.0,0.0,87,0.00,,,0.00,weatherlink.com 1.10,2013-06-16 07:31:00,
2013-06-16 00:44:00,46.8,43.0,29.97,ESE,113,0.0,0.0,87,0.00,,,0.00,weatherlink.com 1.10,2013-06-16 07:44:00,
2013-06-16 01:00:00,46.3,43.0,29.97,ESE,113,0.0,0.0,87,0.00,,,0.00,weatherlink.com 1.10,2013-06-16 08:00:00,
2013-06-16 01:15:00,45.7,42.0,29.97,ESE,113,0.0,0.0,88,0.00,,,0.00,weatherlink.com 1.10,2013-06-16 08:15:00,
2013-06-16 01:30:00,45.1,42.0,29.97,ESE,113,0.0,0.0,88,0.00,,,0.00,weatherlink.com 1.10,2013-06-16 08:30:00,
2013-06-16 01:45:00,44.7,42.0,29.98,ESE,113,0.0,0.0,89,0.00,,,0.00,weatherlink.com 1.10,2013-06-16 08:45:00,
2013-06-16 02:00:00,44.4,41.0,29.98,ESE,113,0.0,0.0,89,0.00,,,0.00,weatherlink.com 1.10,2013-06-16 09:00:00,
2013-06-16 02:15:00,44.1,41.0,29.98,ESE,113,0.0,0.0,90,0.00,,,0.00,weatherlink.com 1.10,2013-06-16 09:15:00,
2013-06-16 02:29:00,43.7,41.0,29.98,ESE,113,0.0,0.0,90,0.00,,,0.00,weatherlink.com 1.10,2013-06-16 09:29:00,
2013-06-16 02:45:00,43.3,41.0,29.98,ESE,113,0.0,0.0,90,0.00,,,0.00,weatherlink.com 1.10,2013-06-16 09:45:00,
2013-06-16 03:00:00,43.0,40.0,29.98,ESE,113,0.0,0.0,90,0.00,,,0.00,weatherlink.com 1.10,2013-06-16 10:00:00,
2013-06-16 03:15:00,42.8,40.0,29.98,ESE,113,0.0,0.0,90,0.00,,,0.00,weatherlink.com 1.10,2013-06-16 10:15:00,
2013-06-16 03:33:00,42.5,40.0,29.98,ESE,113,0.0,0.0,90,0.00,,,0.00,weatherlink.com 1.10,2013-06-16 10:33:00,
2013-06-16 03:45:00,42.3,40.0,29.98,ESE,113,0.0,0.0,90,0.00,,,0.00,weatherlink.com 1.10,2013-06-16 10:45:00,
2013-06-16 04:00:00,42.1,40.0,29.98,ESE,113,0.0,0.0,91,0.00,,,0.00,weatherlink.com 1.10,2013-06-16 11:00:00,
2013-06-16 04:22:00,41.9,40.0,29.98,ESE,113,0.0,0.0,91,0.00,,,0.00,weatherlink.com 1.10,2013-06-16 11:22:00,
2013-06-16 04:29:00,41.8,39.0,29.99,ESE,113,0.0,0.0,91,0.00,,,0.00,weatherlink.com 1.10,2013-06-16 11:29:00,
2013-06-16 04:44:00,41.5,39.0,29.99,ESE,113,0.0,0.0,91,0.00,,,0.00,weatherlink.com 1.10,2013-06-16 11:44:00,
2013-06-16 04:59:00,41.2,39.0,29.99,ESE,113,0.0,0.0,91,0.00,,,0.00,weatherlink.com 1.10,2013-06-16 11:59:00,
2013-06-16 05:17:00,40.9,39.0,30.00,ESE,113,0.0,0.0,91,0.00,,,0.00,weatherlink.com 1.10,2013-06-16 12:17:00,
2013-06-16 05:29:00,40.7,38.0,30.00,ESE,113,0.0,0.0,91,0.00,,,0.00,weatherlink.com 1.10,2013-06-16 12:29:00,
2013-06-16 05:47:00,40.7,38.0,30.01,ESE,113,0.0,0.0,91,0.00,,,0.00,weatherlink.com 1.10,2013-06-16 12:47:00,
2013-06-16 06:00:00,40.6,39.0,30.01,ESE,111,0.0,1.0,92,0.00,,,0.00,weatherlink.com 1.10,2013-06-16 13:00:00,
2013-06-16 06:16:00,40.4,38.0,30.01,ESE,111,0.0,0.0,91,0.00,,,0.00,weatherlink.com 1.10,2013-06-16 13:16:00,
2013-06-16 06:30:00,40.5,38.0,30.02,ESE,111,0.0,0.0,92,0.00,,,0.00,weatherlink.com 1.10,2013-06-16 13:30:00,
2013-06-16 06:45:00,42.4,41.0,30.02,ESE,111,0.0,0.0,93,0.00,,,0.00,weatherlink.com 1.10,2013-06-16 13:45:00,
2013-06-16 07:00:00,44.8,43.0,30.02,ESE,111,0.0,0.0,94,0.00,,,0.00,weatherlink.com 1.10,2013-06-16 14:00:00,
2013-06-16 07:15:00,48.4,47.0,30.03,ESE,111,0.0,0.0,94,0.00,,,0.00,weatherlink.com 1.10,2013-06-16 14:15:00,
2013-06-16 07:30:00,50.6,48.0,30.03,SE,124,1.0,3.0,89,0.00,,,0.00,weatherlink.com 1.10,2013-06-16 14:30:00,
2013-06-16 07:45:00,52.4,48.0,30.03,SE,124,1.0,2.0,84,0.00,,,0.00,weatherlink.com 1.10,2013-06-16 14:45:00,
2013-06-16 08:01:00,54.0,49.0,30.04,ESE,123,0.0,2.0,82,0.00,,,0.00,weatherlink.com 1.10,2013-06-16 15:01:00,
2013-06-16 08:16:00,55.6,49.0,30.04,ESE,123,1.0,3.0,79,0.00,,,0.00,weatherlink.com 1.10,2013-06-16 15:16:00,
2013-06-16 08:31:00,57.1,50.0,30.04,NNE,30,0.0,2.0,76,0.00,,,0.00,weatherlink.com 1.10,2013-06-16 15:31:00,
2013-06-16 08:46:00,58.7,50.0,30.05,ESE,117,1.0,3.0,73,0.00,,,0.00,weatherlink.com 1.10,2013-06-16 15:46:00,
2013-06-16 09:01:00,60.0,51.0,30.05,ENE,74,2.0,3.0,71,0.00,,,0.00,weatherlink.com 1.10,2013-06-16 16:01:00,
2013-06-16 09:16:00,62.1,51.0,30.05,South,170,2.0,4.0,67,0.00,,,0.00,weatherlink.com 1.10,2013-06-16 16:16:00,
2013-06-16 09:31:00,64.1,51.0,30.05,East,98,3.0,5.0,63,0.00,,,0.00,weatherlink.com 1.10,2013-06-16 16:31:00,
2013-06-16 09:46:00,65.8,52.0,30.05,ESE,111,3.0,4.0,61,0.00,,,0.00,weatherlink.com 1.10,2013-06-16 16:46:00,
2013-06-16 10:01:00,67.1,53.0,30.05,East,97,2.0,6.0,60,0.00,,,0.00,weatherlink.com 1.10,2013-06-16 17:01:00,
2013-06-16 10:16:00,68.6,53.0,30.04,East,98,2.0,7.0,58,0.00,,,0.00,weatherlink.com 1.10,2013-06-16 17:16:00,
2013-06-16 10:31:00,70.1,54.0,30.04,ESE,111,3.0,6.0,56,0.00,,,0.00,weatherlink.com 1.10,2013-06-16 17:31:00,
2013-06-16 10:46:00,72.1,54.0,30.04,SSE,162,4.0,5.0,53,0.00,,,0.00,weatherlink.com 1.10,2013-06-16 17:46:00,
2013-06-16 11:01:00,74.0,54.0,30.04,SE,144,2.0,5.0,49,0.00,,,0.00,weatherlink.com 1.10,2013-06-16 18:01:00,
2013-06-16 11:16:00,75.5,54.0,30.04,ESE,103,3.0,5.0,48,0.00,,,0.00,weatherlink.com 1.10,2013-06-16 18:16:00,
2013-06-16 11:32:00,76.5,55.0,30.04,East,96,5.0,7.0,47,0.00,,,0.00,weatherlink.com 1.10,2013-06-16 18:32:00,
2013-06-16 11:47:00,77.6,56.0,30.04,ESE,113,4.0,8.0,47,0.00,,,0.00,weatherlink.com 1.10,2013-06-16 18:47:00,
2013-06-16 12:02:00,78.0,56.0,30.03,ENE,59,2.0,6.0,46,0.00,,,0.00,weatherlink.com 1.10,2013-06-16 19:02:00,
2013-06-16 12:17:00,79.8,56.0,30.03,NNE,22,3.0,5.0,44,0.00,,,0.00,weatherlink.com 1.10,2013-06-16 19:17:00,
2013-06-16 12:32:00,80.0,56.0,30.03,ESE,110,7.0,8.0,44,0.00,,,0.00,weatherlink.com 1.10,2013-06-16 19:32:00,
2013-06-16 12:47:00,80.5,56.0,30.02,East,98,5.0,6.0,43,0.00,,,0.00,weatherlink.com 1.10,2013-06-16 19:47:00,
2013-06-16 13:02:00,82.0,55.0,30.03,East,79,5.0,7.0,39,0.00,,,0.00,weatherlink.com 1.10,2013-06-16 20:02:00,
2013-06-16 13:17:00,82.6,55.0,30.02,SE,146,5.0,7.0,39,0.00,,,0.00,weatherlink.com 1.10,2013-06-16 20:17:00,
2013-06-16 13:32:00,83.2,54.0,30.02,SE,146,5.0,8.0,37,0.00,,,0.00,weatherlink.com 1.10,2013-06-16 20:32:00,
2013-06-16 13:47:00,85.0,54.0,30.02,SSW,198,5.0,7.0,35,0.00,,,0.00,weatherlink.com 1.10,2013-06-16 20:47:00,
2013-06-16 14:02:00,85.6,54.0,30.02,West,267,3.0,7.0,34,0.00,,,0.00,weatherlink.com 1.10,2013-06-16 21:02:00,
2013-06-16 14:17:00,85.7,55.0,30.01,SW,222,1.0,6.0,35,0.00,,,0.00,weatherlink.com 1.10,2013-06-16 21:17:00,
2013-06-16 14:32:00,86.3,54.0,30.01,North,355,2.0,6.0,33,0.00,,,0.00,weatherlink.com 1.10,2013-06-16 21:32:00,
2013-06-16 14:47:00,86.1,52.0,30.00,West,274,6.0,10.0,31,0.00,,,0.00,weatherlink.com 1.10,2013-06-16 21:47:00,
2013-06-16 15:02:00,86.2,51.0,30.00,WSW,247,1.0,8.0,30,0.00,,,0.00,weatherlink.com 1.10,2013-06-16 22:02:00,
2013-06-16 15:17:00,86.5,52.0,30.00,WNW,290,3.0,8.0,30,0.00,,,0.00,weatherlink.com 1.10,2013-06-16 22:17:00,
2013-06-16 15:32:00,86.6,50.0,30.01,East,93,0.0,6.0,28,0.00,,,0.00,weatherlink.com 1.10,2013-06-16 22:32:00,
2013-06-16 15:47:00,86.5,50.0,30.01,North,5,2.0,5.0,28,0.00,,,0.00,weatherlink.com 1.10,2013-06-16 22:47:00,
2013-06-16 16:02:00,85.9,47.0,30.01,WSW,253,3.0,6.0,26,0.00,,,0.00,weatherlink.com 1.10,2013-06-16 23:02:00,
2013-06-16 16:17:00,85.4,49.0,30.01,WSW,240,2.0,7.0,28,0.00,,,0.00,weatherlink.com 1.10,2013-06-16 23:17:00,
2013-06-16 16:32:00,85.2,50.0,30.01,SE,133,1.0,6.0,30,0.00,,,0.00,weatherlink.com 1.10,2013-06-16 23:32:00,
2013-06-16 16:47:00,84.5,49.0,30.01,NNE,26,2.0,8.0,29,0.00,,,0.00,weatherlink.com 1.10,2013-06-16 23:47:00,
2013-06-16 17:02:00,84.2,50.0,30.01,WSW,237,0.0,4.0,31,0.00,,,0.00,weatherlink.com 1.10,2013-06-17 00:02:00,
2013-06-16 17:17:00,83.2,48.0,30.01,NW,313,4.0,14.0,29,0.00,,,0.00,weatherlink.com 1.10,2013-06-17 00:17:00,
2013-06-16 17:32:00,82.9,48.0,30.01,NNW,333,3.0,11.0,29,0.00,,,0.00,weatherlink.com 1.10,2013-06-17 00:32:00,
2013-06-16 17:47:00,82.9,47.0,30.01,WSW,257,3.0,8.0,28,0.00,,,0.00,weatherlink.com 1.10,2013-06-17 00:47:00,
2013-06-16 18:02:00,82.1,46.0,30.01,WNW,296,5.0,12.0,28,0.00,,,0.00,weatherlink.com 1.10,2013-06-17 01:02:00,
2013-06-16 18:17:00,81.7,45.0,30.01,WNW,293,8.0,9.0,27,0.00,,,0.00,weatherlink.com 1.10,2013-06-17 01:17:00,
2013-06-16 18:32:00,81.1,44.0,30.01,NW,319,3.0,7.0,27,0.00,,,0.00,weatherlink.com 1.10,2013-06-17 01:32:00,
2013-06-16 18:47:00,80.3,44.0,30.01,SW,217,5.0,10.0,28,0.00,,,0.00,weatherlink.com 1.10,2013-06-17 01:47:00,
2013-06-16 19:02:00,80.3,45.0,30.01,WNW,291,5.0,7.0,29,0.00,,,0.00,weatherlink.com 1.10,2013-06-17 02:02:00,
2013-06-16 19:17:00,79.6,46.0,30.01,WNW,292,2.0,9.0,31,0.00,,,0.00,weatherlink.com 1.10,2013-06-17 02:17:00,
2013-06-16 19:32:00,79.1,47.0,30.02,West,271,2.0,6.0,32,0.00,,,0.00,weatherlink.com 1.10,2013-06-17 02:32:00,
2013-06-16 19:47:00,78.1,47.0,30.02,West,275,3.0,5.0,34,0.00,,,0.00,weatherlink.com 1.10,2013-06-17 02:47:00,
2013-06-16 20:02:00,77.3,48.0,30.02,WNW,299,0.0,4.0,36,0.00,,,0.00,weatherlink.com 1.10,2013-06-17 03:02:00,
2013-06-16 20:17:00,75.2,48.0,30.02,WNW,288,2.0,2.0,38,0.00,,,0.00,weatherlink.com 1.10,2013-06-17 03:17:00,
2013-06-16 20:32:00,72.7,48.0,30.02,West,261,0.0,4.0,41,0.00,,,0.00,weatherlink.com 1.10,2013-06-17 03:32:00,
2013-06-16 20:47:00,70.7,48.0,30.03,NNW,327,0.0,2.0,44,0.00,,,0.00,weatherlink.com 1.10,2013-06-17 03:47:00,
2013-06-16 21:02:00,69.1,48.0,30.03,WNW,290,0.0,3.0,47,0.00,,,0.00,weatherlink.com 1.10,2013-06-17 04:02:00,
2013-06-16 21:17:00,67.5,49.0,30.03,WSW,257,0.0,0.0,52,0.00,,,0.00,weatherlink.com 1.10,2013-06-17 04:17:00,
2013-06-16 21:32:00,65.1,50.0,30.04,WSW,257,0.0,0.0,58,0.00,,,0.00,weatherlink.com 1.10,2013-06-17 04:32:00,
2013-06-16 21:47:00,63.1,49.0,30.04,WSW,257,0.0,1.0,61,0.00,,,0.00,weatherlink.com 1.10,2013-06-17 04:47:00,
2013-06-16 22:02:00,61.8,49.0,30.04,WSW,257,0.0,1.0,63,0.00,,,0.00,weatherlink.com 1.10,2013-06-17 05:02:00,
2013-06-16 22:17:00,60.6,49.0,30.04,WSW,257,0.0,1.0,66,0.00,,,0.00,weatherlink.com 1.10,2013-06-17 05:17:00,
2013-06-16 22:32:00,59.5,49.0,30.04,WSW,257,0.0,1.0,68,0.00,,,0.00,weatherlink.com 1.10,2013-06-17 05:32:00,
2013-06-16 22:47:00,58.4,49.0,30.05,WSW,257,0.0,1.0,71,0.00,,,0.00,weatherlink.com 1.10,2013-06-17 05:47:00,
2013-06-16 23:02:00,57.3,49.0,30.05,WSW,257,0.0,0.0,73,0.00,,,0.00,weatherlink.com 1.10,2013-06-17 06:02:00,
2013-06-16 23:17:00,55.9,48.0,30.05,WSW,257,0.0,0.0,75,0.00,,,0.00,weatherlink.com 1.10,2013-06-17 06:17:00,
2013-06-16 23:32:00,55.2,48.0,30.05,WSW,257,0.0,0.0,76,0.00,,,0.00,weatherlink.com 1.10,2013-06-17 06:32:00,
2013-06-16 23:47:00,54.3,48.0,30.05,WSW,257,0.0,0.0,78,0.00,,,0.00,weatherlink.com 1.10,2013-06-17 06:47:00,